createdAt,value
2022-09-15T00:00:23.343Z,4.30
2022-09-15T00:02:54.144Z,4.45
2022-09-15T00:05:24.532Z,4.57
2022-09-15T00:07:55.104Z,4.80
2022-09-15T00:10:25.749Z,4.50
2022-09-15T00:12:57.029Z,4.68
2022-09-15T00:15:27.289Z,4.38
2022-09-15T00:17:57.635Z,4.82
2022-09-15T00:20:28.223Z,4.40
2022-09-15T00:22:58.530Z,4.32
2022-09-15T00:25:28.776Z,4.10
2022-09-15T00:27:59.366Z,4.18
2022-09-15T00:30:29.942Z,4.22
2022-09-15T00:33:00.372Z,4.40
2022-09-15T00:35:30.399Z,4.07
2022-09-15T00:38:00.874Z,4.07
2022-09-15T00:40:31.787Z,4.18
2022-09-15T00:43:02.430Z,4.05
2022-09-15T00:45:32.759Z,4.43
2022-09-15T00:48:03.996Z,3.67
2022-09-15T00:50:36.419Z,4.05
2022-09-15T00:53:10.308Z,4.45
2022-09-15T00:55:46.825Z,4.20
2022-09-15T00:58:32.820Z,4.72
2022-09-15T01:01:05.736Z,4.22
2022-09-15T01:03:36.841Z,4.13
2022-09-15T01:06:15.475Z,4.30
2022-09-15T01:11:24.935Z,3.78
2022-09-15T01:13:55.667Z,4.28
2022-09-15T01:16:49.473Z,4.53
2022-09-15T01:19:57.996Z,4.70
2022-09-15T01:22:55.810Z,5.03
2022-09-15T01:25:47.338Z,4.63
2022-09-15T01:28:48.619Z,4.40
2022-09-15T01:31:32.127Z,4.45
2022-09-15T01:34:18.170Z,4.55
2022-09-15T01:36:59.273Z,4.47
2022-09-15T01:39:43.139Z,4.63
2022-09-15T01:42:17.435Z,4.82
2022-09-15T01:44:53.070Z,4.50
2022-09-15T01:47:24.639Z,4.75
2022-09-15T01:50:03.680Z,5.07
2022-09-15T01:52:35.517Z,5.60
2022-09-15T01:55:17.899Z,4.70
2022-09-15T01:57:48.347Z,5.68
2022-09-15T02:00:19.026Z,5.43
2022-09-15T02:03:00.335Z,5.70
2022-09-15T02:05:42.688Z,5.43
2022-09-15T02:08:44.242Z,5.30
2022-09-15T02:11:21.671Z,5.07
2022-09-15T02:14:01.081Z,4.72
2022-09-15T02:16:36.645Z,5.22
2022-09-15T02:19:32.991Z,5.15
2022-09-15T02:22:12.320Z,5.20
2022-09-15T02:24:47.125Z,4.80
2022-09-15T02:27:25.615Z,4.95
2022-09-15T02:30:00.970Z,5.03
2022-09-15T02:32:33.909Z,5.35
2022-09-15T02:35:09.333Z,5.18
2022-09-15T02:37:40.489Z,5.40
2022-09-15T02:40:11.246Z,4.68
2022-09-15T02:42:43.896Z,5.15
2022-09-15T02:45:14.578Z,4.70
2022-09-15T02:47:44.892Z,5.45
2022-09-15T02:50:15.013Z,5.43
2022-09-15T02:52:45.564Z,4.63
2022-09-15T02:55:17.094Z,5.05
2022-09-15T02:57:47.521Z,5.10
2022-09-15T03:00:18.802Z,5.22
2022-09-15T03:02:52.229Z,5.25
2022-09-15T03:05:25.919Z,4.82
2022-09-15T03:07:57.021Z,5.25
2022-09-15T03:10:28.204Z,4.88
2022-09-15T03:12:58.805Z,4.70
2022-09-15T03:15:29.315Z,5.28
2022-09-15T03:18:00.000Z,4.57
2022-09-15T03:20:31.603Z,4.43
2022-09-15T03:23:04.731Z,4.53
2022-09-15T03:25:34.970Z,5.30
2022-09-15T03:28:05.392Z,4.22
2022-09-15T03:30:36.022Z,4.72
2022-09-15T03:33:06.975Z,4.78
2022-09-15T03:35:37.275Z,4.78
2022-09-15T03:38:07.229Z,4.65
2022-09-15T03:40:38.971Z,4.68
2022-09-15T03:43:10.081Z,4.55
2022-09-15T03:45:41.105Z,3.83
2022-09-15T03:48:11.626Z,4.07
2022-09-15T03:50:41.772Z,4.65
2022-09-15T03:53:11.923Z,4.00
2022-09-15T03:55:42.013Z,4.05
2022-09-15T03:58:12.555Z,4.78
2022-09-15T04:00:43.181Z,4.38
2022-09-15T04:03:14.556Z,4.38
2022-09-15T04:05:45.215Z,4.28
2022-09-15T04:08:16.045Z,4.50
2022-09-15T04:10:46.897Z,4.32
2022-09-15T04:13:17.114Z,4.65
2022-09-15T04:15:47.335Z,4.20
2022-09-15T04:18:17.413Z,4.50
2022-09-15T04:20:47.800Z,4.20
2022-09-15T04:23:18.311Z,3.97
2022-09-15T04:26:00.192Z,4.22
2022-09-15T04:28:33.376Z,4.40
2022-09-15T04:31:12.403Z,4.50
2022-09-15T04:33:44.606Z,4.22
2022-09-15T04:36:20.738Z,4.05
2022-09-15T04:38:52.329Z,3.90
2022-09-15T04:41:23.682Z,4.13
2022-09-15T04:43:54.381Z,4.20
2022-09-15T04:46:24.526Z,4.45
2022-09-15T04:48:55.119Z,4.57
2022-09-15T04:51:26.331Z,4.70
2022-09-15T04:53:57.118Z,3.85
2022-09-15T04:56:29.082Z,4.07
2022-09-15T04:59:04.165Z,4.30
2022-09-15T05:01:37.198Z,4.60
2022-09-15T05:04:07.388Z,4.25
2022-09-15T05:06:38.294Z,4.80
2022-09-15T05:09:10.590Z,4.45
2022-09-15T05:11:41.741Z,3.95
2022-09-15T05:14:12.538Z,4.63
2022-09-15T05:16:43.160Z,4.75
2022-09-15T05:19:14.001Z,4.97
2022-09-15T05:21:44.348Z,4.43
2022-09-15T05:24:14.439Z,4.72
2022-09-15T05:26:45.444Z,4.32
2022-09-15T05:29:16.376Z,4.35
2022-09-15T05:31:46.964Z,4.35
2022-09-15T05:34:17.482Z,4.32
2022-09-15T05:36:47.805Z,4.47
2022-09-15T05:39:18.455Z,4.47
2022-09-15T05:41:48.649Z,3.97
2022-09-15T05:44:18.683Z,4.93
2022-09-15T05:46:49.177Z,4.75
2022-09-15T05:49:19.892Z,4.97
2022-09-15T05:51:50.427Z,4.50
2022-09-15T05:54:20.559Z,4.60
2022-09-15T05:56:50.660Z,4.50
2022-09-15T05:59:20.832Z,4.63
2022-09-15T06:01:51.292Z,4.05
2022-09-15T06:04:21.867Z,4.57
2022-09-15T06:06:52.737Z,4.95
2022-09-15T06:09:22.823Z,5.13
2022-09-15T06:11:53.515Z,5.07
2022-09-15T06:14:24.036Z,4.22
2022-09-15T06:16:54.537Z,4.40
2022-09-15T06:19:25.071Z,4.45
2022-09-15T06:21:55.526Z,4.75
2022-09-15T06:24:25.605Z,4.60
2022-09-15T06:26:55.931Z,4.47
2022-09-15T06:29:26.807Z,3.90
2022-09-15T06:31:58.355Z,4.70
2022-09-15T06:34:28.827Z,4.28
2022-09-15T06:36:59.368Z,4.15
2022-09-15T06:39:30.178Z,4.35
2022-09-15T06:42:03.108Z,4.50
2022-09-15T06:44:34.651Z,4.18
2022-09-15T06:47:05.428Z,4.00
2022-09-15T06:49:36.072Z,4.15
2022-09-15T06:52:06.416Z,4.35
2022-09-15T06:54:36.421Z,4.30
2022-09-15T06:57:07.165Z,4.50
2022-09-15T06:59:37.666Z,4.70
2022-09-15T07:02:08.060Z,4.28
2022-09-15T07:04:41.359Z,4.43
2022-09-15T07:07:12.003Z,3.95
2022-09-15T07:09:46.022Z,4.35
2022-09-15T07:12:18.620Z,4.85
2022-09-15T07:14:48.635Z,4.20
2022-09-15T07:17:18.958Z,3.83
2022-09-15T07:19:49.648Z,4.28
2022-09-15T07:22:19.538Z,4.20
2022-09-15T07:24:49.563Z,3.55
2022-09-15T07:27:19.571Z,4.00
2022-09-15T07:29:49.997Z,4.15
2022-09-15T07:32:20.284Z,3.92
2022-09-15T07:34:50.775Z,4.05
2022-09-15T07:37:21.069Z,4.13
2022-09-15T07:39:51.478Z,4.30
2022-09-15T07:42:21.969Z,4.25
2022-09-15T07:44:53.305Z,4.50
2022-09-15T07:47:23.548Z,4.22
2022-09-15T07:49:54.301Z,4.18
2022-09-15T07:52:24.870Z,4.43
2022-09-15T07:54:55.770Z,3.58
2022-09-15T07:57:26.329Z,3.83
2022-09-15T07:59:56.543Z,4.18
2022-09-15T08:02:27.194Z,3.63
2022-09-15T08:04:59.257Z,3.78
2022-09-15T08:07:29.763Z,4.15
2022-09-15T08:09:59.836Z,3.50
2022-09-15T08:12:31.938Z,4.30
2022-09-15T08:15:02.955Z,3.88
2022-09-15T08:17:33.737Z,3.90
2022-09-15T08:20:04.531Z,4.55
2022-09-15T08:22:35.195Z,3.80
2022-09-15T08:25:05.998Z,4.85
2022-09-15T08:27:36.724Z,4.28
2022-09-15T08:30:08.508Z,4.07
2022-09-15T08:32:38.805Z,4.43
2022-09-15T08:35:10.109Z,4.32
2022-09-15T08:37:41.149Z,4.22
2022-09-15T08:40:22.564Z,3.95
2022-09-15T08:42:56.819Z,4.05
2022-09-15T08:45:32.153Z,4.68
2022-09-15T08:48:05.463Z,3.95
2022-09-15T08:50:43.369Z,4.32
2022-09-15T08:53:27.752Z,4.93
2022-09-15T08:56:09.802Z,5.18
2022-09-15T08:58:41.321Z,4.85
2022-09-15T09:01:48.543Z,5.43
2022-09-15T09:04:31.759Z,6.00
2022-09-15T09:07:20.543Z,4.35
2022-09-15T09:10:15.082Z,4.30
2022-09-15T09:12:54.387Z,4.57
2022-09-15T09:15:46.054Z,4.00
2022-09-15T09:18:34.747Z,4.15
2022-09-15T09:21:08.642Z,4.50
2022-09-15T09:24:12.677Z,5.00
2022-09-15T09:26:43.641Z,4.25
2022-09-15T09:29:21.422Z,4.47
2022-09-15T09:31:55.472Z,4.93
2022-09-15T09:34:45.850Z,4.75
2022-09-15T09:37:18.256Z,4.88
2022-09-15T09:39:49.562Z,5.03
2022-09-15T09:42:21.525Z,5.30
2022-09-15T09:44:52.114Z,4.90
2022-09-15T09:47:22.751Z,4.57
2022-09-15T09:49:53.049Z,3.72
2022-09-15T09:52:41.854Z,5.03
2022-09-15T09:55:21.260Z,4.15
2022-09-15T09:57:51.716Z,4.75
2022-09-15T10:00:35.624Z,4.50
2022-09-15T10:03:32.186Z,5.35
2022-09-15T10:06:24.596Z,4.70
2022-09-15T10:11:45.972Z,6.20
2022-09-15T10:14:38.100Z,5.15
2022-09-15T10:17:42.725Z,5.65
2022-09-15T10:20:33.544Z,5.80
2022-09-15T10:23:28.122Z,5.35
2022-09-15T10:26:20.297Z,5.43
2022-09-15T10:29:10.305Z,5.28
2022-09-15T10:31:41.384Z,6.43
2022-09-15T10:34:33.393Z,5.47
2022-09-15T10:37:23.358Z,5.93
2022-09-15T10:40:01.272Z,6.05
2022-09-15T10:42:59.492Z,5.43
2022-09-15T10:45:40.266Z,5.60
2022-09-15T10:48:29.756Z,6.57
2022-09-15T10:51:21.322Z,6.05
2022-09-15T10:56:42.577Z,4.40
2022-09-15T10:59:23.598Z,4.82
2022-09-15T11:02:24.093Z,4.50
2022-09-15T11:05:21.961Z,3.40
2022-09-15T11:08:04.408Z,3.15
2022-09-15T11:10:50.146Z,3.53
2022-09-15T11:13:27.188Z,2.80
2022-09-15T11:16:36.527Z,2.78
2022-09-15T11:19:09.831Z,4.97
2022-09-15T11:21:48.435Z,3.15
2022-09-15T11:24:38.466Z,3.10
2022-09-15T11:27:14.566Z,3.17
2022-09-15T11:30:08.510Z,2.83
2022-09-15T11:32:48.975Z,2.30
2022-09-15T11:35:36.339Z,2.75
2022-09-15T11:38:35.463Z,2.13
2022-09-15T11:41:24.027Z,2.17
2022-09-15T11:44:07.528Z,2.38
2022-09-15T11:47:12.494Z,2.30
2022-09-15T11:49:57.751Z,4.03
2022-09-15T11:55:20.208Z,2.53
2022-09-15T11:57:56.781Z,2.92
2022-09-15T12:00:27.480Z,2.55
2022-09-15T12:03:22.426Z,3.28
2022-09-15T12:06:08.939Z,3.03
2022-09-15T12:08:45.831Z,2.58
2022-09-15T12:11:24.522Z,3.47
2022-09-15T12:13:57.373Z,3.42
2022-09-15T12:16:29.375Z,2.35
2022-09-15T12:19:15.824Z,2.97
2022-09-15T12:22:04.593Z,2.22
2022-09-15T12:24:40.990Z,3.20
2022-09-15T12:27:18.226Z,3.25
2022-09-15T12:29:57.110Z,3.55
2022-09-15T12:35:04.877Z,3.15
2022-09-15T12:37:50.708Z,3.00
2022-09-15T12:40:41.547Z,2.70
2022-09-15T12:43:14.868Z,3.30
2022-09-15T12:45:59.644Z,3.10
2022-09-15T12:48:34.796Z,3.20
2022-09-15T12:51:14.022Z,3.10
2022-09-15T12:54:01.838Z,4.70
2022-09-15T12:56:35.127Z,3.15
2022-09-15T12:59:16.999Z,4.35
2022-09-15T13:01:50.444Z,4.10
2022-09-15T13:04:43.065Z,4.13
2022-09-15T13:07:22.248Z,4.05
2022-09-15T13:10:00.458Z,4.45
2022-09-15T13:12:37.995Z,3.58
2022-09-15T13:15:14.624Z,4.28
2022-09-15T13:17:48.937Z,3.50
2022-09-15T13:20:31.104Z,3.72
2022-09-15T13:23:03.496Z,3.75
2022-09-15T13:25:35.208Z,3.47
2022-09-15T13:28:06.282Z,3.75
2022-09-15T13:30:55.343Z,3.58
2022-09-15T13:40:47.303Z,3.67
2022-09-15T13:43:51.591Z,3.53
2022-09-15T13:46:58.667Z,3.10
2022-09-15T13:49:36.824Z,3.22
2022-09-15T13:52:32.458Z,3.63
2022-09-15T13:55:15.455Z,3.38
2022-09-15T14:01:02.575Z,2.97
2022-09-15T14:04:09.331Z,2.60
2022-09-15T14:06:43.071Z,3.53
2022-09-15T14:09:48.807Z,2.70
2022-09-15T14:12:20.045Z,2.90
2022-09-15T14:14:55.908Z,3.20
2022-09-15T14:17:32.858Z,3.03
2022-09-15T14:20:05.560Z,6.00
2022-09-15T14:22:36.887Z,3.05
2022-09-15T14:25:16.345Z,3.45
2022-09-15T14:27:49.177Z,2.75
2022-09-15T14:30:25.716Z,3.15
2022-09-15T14:33:01.343Z,3.20
2022-09-15T14:35:40.158Z,3.08
2022-09-15T14:38:23.005Z,3.22
2022-09-15T14:40:55.759Z,4.15
2022-09-15T14:43:28.097Z,3.72
2022-09-15T14:48:41.694Z,3.70
2022-09-15T14:51:34.333Z,3.05
2022-09-15T14:54:06.414Z,3.40
2022-09-15T14:56:41.064Z,3.35
2022-09-15T14:59:28.697Z,3.60
2022-09-15T15:02:26.237Z,3.55
2022-09-15T15:05:09.305Z,3.63
2022-09-15T15:07:41.422Z,3.30
2022-09-15T15:10:31.140Z,3.40
2022-09-15T15:13:13.371Z,3.60
2022-09-15T15:15:44.192Z,2.90
2022-09-15T15:18:39.756Z,3.10
2022-09-15T15:21:46.493Z,2.75
2022-09-15T15:24:25.058Z,2.97
2022-09-15T15:26:55.239Z,3.70
2022-09-15T15:29:44.392Z,3.40
2022-09-15T15:32:22.438Z,3.22
2022-09-15T15:34:55.755Z,3.80
2022-09-15T15:37:25.785Z,3.22
2022-09-15T15:39:58.154Z,3.13
2022-09-15T15:42:29.880Z,3.85
2022-09-15T15:45:03.164Z,3.53
2022-09-15T15:47:37.321Z,3.78
2022-09-15T15:50:23.318Z,3.13
2022-09-15T15:52:54.669Z,2.63
2022-09-15T15:55:29.956Z,3.25
2022-09-15T15:58:00.283Z,3.30
2022-09-15T16:00:52.868Z,3.95
2022-09-15T16:03:24.452Z,3.30
2022-09-15T16:05:59.733Z,3.17
2022-09-15T16:08:41.109Z,3.53
2022-09-15T16:11:16.322Z,2.70
2022-09-15T16:13:46.765Z,3.20
2022-09-15T16:16:21.063Z,3.53
2022-09-15T16:18:52.585Z,3.50
2022-09-15T16:21:38.182Z,3.30
2022-09-15T16:24:16.741Z,3.10
2022-09-15T16:26:50.629Z,3.35
2022-09-15T16:29:28.007Z,3.33
2022-09-15T16:31:58.677Z,3.53
2022-09-15T16:34:29.225Z,3.47
2022-09-15T16:36:59.318Z,4.07
2022-09-15T16:39:29.371Z,4.05
2022-09-15T16:44:34.683Z,3.40
2022-09-15T16:47:07.472Z,3.50
2022-09-15T16:49:40.425Z,3.35
2022-09-15T16:52:14.764Z,3.25
2022-09-15T16:54:44.966Z,3.45
2022-09-15T16:57:15.335Z,2.92
2022-09-15T16:59:45.874Z,3.05
2022-09-15T17:02:16.540Z,2.58
2022-09-15T17:04:46.498Z,3.25
2022-09-15T17:07:16.354Z,2.83
2022-09-15T17:09:48.218Z,2.90
2022-09-15T17:12:18.918Z,2.85
2022-09-15T17:14:49.069Z,2.78
2022-09-15T17:17:26.626Z,2.88
2022-09-15T17:19:57.473Z,3.10
2022-09-15T17:22:28.524Z,3.17
2022-09-15T17:24:58.886Z,2.83
2022-09-15T17:27:28.963Z,3.30
2022-09-15T17:29:59.003Z,3.70
2022-09-15T17:32:34.164Z,3.08
2022-09-15T17:35:20.201Z,3.20
2022-09-15T17:37:51.215Z,2.70
2022-09-15T17:40:23.001Z,3.92
2022-09-15T17:42:54.196Z,3.42
2022-09-15T17:45:27.394Z,3.00
2022-09-15T17:47:58.579Z,3.92
2022-09-15T17:50:31.053Z,2.70
2022-09-15T17:53:02.143Z,3.55
2022-09-15T17:55:35.079Z,3.33
2022-09-15T17:58:06.823Z,3.45
2022-09-15T18:00:39.377Z,3.20
2022-09-15T18:03:15.202Z,3.10
2022-09-15T18:05:46.701Z,3.00
2022-09-15T18:08:18.119Z,3.08
2022-09-15T18:10:48.772Z,2.80
2022-09-15T18:13:21.802Z,2.85
2022-09-15T18:15:52.722Z,3.10
2022-09-15T18:18:25.972Z,3.60
2022-09-15T18:20:59.223Z,2.75
2022-09-15T18:23:30.719Z,3.08
2022-09-15T18:26:01.439Z,2.97
2022-09-15T18:28:31.802Z,2.85
2022-09-15T18:31:01.961Z,3.10
2022-09-15T18:33:32.225Z,2.80
2022-09-15T18:36:02.762Z,3.63
2022-09-15T18:38:33.223Z,2.80
2022-09-15T18:41:03.513Z,3.00
2022-09-15T18:43:33.878Z,2.67
2022-09-15T18:46:04.624Z,2.92
2022-09-15T18:48:35.350Z,2.83
2022-09-15T18:51:10.829Z,3.00
2022-09-15T18:53:42.230Z,2.75
2022-09-15T18:56:14.084Z,3.15
2022-09-15T19:01:14.229Z,3.10
2022-09-15T19:03:44.376Z,3.22
2022-09-15T19:06:14.778Z,3.15
2022-09-15T19:08:46.169Z,2.60
2022-09-15T19:11:16.408Z,3.25
2022-09-15T19:13:46.889Z,2.72
2022-09-15T19:16:20.178Z,2.80
2022-09-15T19:18:54.848Z,2.70
2022-09-15T19:21:27.395Z,3.20
2022-09-15T19:23:59.371Z,2.42
2022-09-15T19:26:30.704Z,2.80
2022-09-15T19:29:01.627Z,2.47
2022-09-15T19:31:32.389Z,2.63
2022-09-15T19:34:05.434Z,2.83
2022-09-15T19:36:35.902Z,2.78
2022-09-15T19:39:06.818Z,3.10
2022-09-15T19:41:36.846Z,3.03
2022-09-15T19:44:09.514Z,3.15
2022-09-15T19:46:41.481Z,4.65
2022-09-15T19:49:12.642Z,3.42
2022-09-15T19:51:43.735Z,4.80
2022-09-15T19:54:13.864Z,3.30
2022-09-15T19:56:43.742Z,5.47
2022-09-15T19:59:13.684Z,3.00
2022-09-15T20:01:43.882Z,3.40
2022-09-15T20:04:15.161Z,3.20
2022-09-15T20:06:45.712Z,3.00
2022-09-15T20:09:16.883Z,10.85
2022-09-15T20:11:47.305Z,3.45
2022-09-15T20:14:17.794Z,3.72
2022-09-15T20:16:48.234Z,3.15
2022-09-15T20:19:19.598Z,2.85
2022-09-15T20:21:51.080Z,3.13
2022-09-15T20:26:54.211Z,3.65
2022-09-15T20:29:25.254Z,3.00
2022-09-15T20:31:55.758Z,3.60
2022-09-15T20:34:25.755Z,3.10
2022-09-15T20:36:56.869Z,3.33
2022-09-15T20:39:27.795Z,3.60
2022-09-15T20:41:58.915Z,3.80
2022-09-15T20:44:29.467Z,3.00
2022-09-15T20:46:59.900Z,2.90
2022-09-15T20:49:30.537Z,2.65
2022-09-15T20:52:00.865Z,2.60
2022-09-15T20:54:31.230Z,3.00
2022-09-15T20:57:02.707Z,3.20
2022-09-15T20:59:33.617Z,3.15
2022-09-15T21:02:05.945Z,3.30
2022-09-15T21:04:36.625Z,3.10
2022-09-15T21:07:06.865Z,2.88
2022-09-15T21:09:37.732Z,2.88
2022-09-15T21:12:08.057Z,2.88
2022-09-15T21:14:37.996Z,2.90
2022-09-15T21:17:08.190Z,2.70
2022-09-15T21:19:39.162Z,2.50
2022-09-15T21:22:10.024Z,2.83
2022-09-15T21:24:40.069Z,2.65
2022-09-15T21:27:28.453Z,2.75
2022-09-15T21:29:59.267Z,2.80
2022-09-15T21:32:31.111Z,3.00
2022-09-15T21:35:01.392Z,3.10
2022-09-15T21:37:31.432Z,3.00
2022-09-15T21:40:01.595Z,3.13
2022-09-15T21:42:31.510Z,4.72
2022-09-15T21:45:02.533Z,4.05
2022-09-15T21:47:35.239Z,4.20
2022-09-15T21:50:05.773Z,4.20
2022-09-15T21:52:35.888Z,3.60
2022-09-15T21:55:05.948Z,3.92
2022-09-15T21:57:35.991Z,3.92
2022-09-15T22:00:08.313Z,3.60
2022-09-15T22:02:39.155Z,3.80
2022-09-15T22:05:09.569Z,3.60
2022-09-15T22:07:41.408Z,3.55
2022-09-15T22:10:11.831Z,3.85
2022-09-15T22:12:42.709Z,3.80
2022-09-15T22:15:13.552Z,3.30
2022-09-15T22:17:43.511Z,3.53
2022-09-15T22:20:14.270Z,3.45
2022-09-15T22:22:45.552Z,4.00
2022-09-15T22:25:21.654Z,3.05
2022-09-15T22:27:52.587Z,3.95
2022-09-15T22:30:23.075Z,3.67
2022-09-15T22:32:54.637Z,3.80
2022-09-15T22:35:26.250Z,3.40
2022-09-15T22:37:56.738Z,3.58
2022-09-15T22:40:27.362Z,3.78
2022-09-15T22:42:57.418Z,3.97
2022-09-15T22:45:27.519Z,4.13
2022-09-15T22:47:57.994Z,3.45
2022-09-15T22:50:28.695Z,3.70
2022-09-15T22:52:59.357Z,4.03
2022-09-15T22:55:29.693Z,3.47
2022-09-15T22:57:59.911Z,3.92
2022-09-15T23:00:30.246Z,3.50
2022-09-15T23:03:00.454Z,3.88
2022-09-15T23:05:30.859Z,4.15
2022-09-15T23:08:01.236Z,4.15
2022-09-15T23:10:32.869Z,4.30
2022-09-15T23:13:03.669Z,3.25
2022-09-15T23:15:36.408Z,3.75
2022-09-15T23:18:06.825Z,4.10
2022-09-15T23:20:36.959Z,4.55
2022-09-15T23:23:07.590Z,3.97
2022-09-15T23:25:38.626Z,4.80
2022-09-15T23:28:09.142Z,4.13
2022-09-15T23:30:40.476Z,4.55
2022-09-15T23:33:11.361Z,4.55
2022-09-15T23:35:42.498Z,4.50
2022-09-15T23:38:12.949Z,4.20
2022-09-15T23:40:44.215Z,5.43
2022-09-15T23:43:15.334Z,5.13
2022-09-15T23:45:47.483Z,3.85
2022-09-15T23:48:18.045Z,3.70
2022-09-15T23:50:48.325Z,4.63
2022-09-15T23:53:19.533Z,4.95
2022-09-15T23:55:50.550Z,4.38
2022-09-15T23:58:20.813Z,4.43
